3MI0 weather

Doss Field
Lake George, Michigan, United States

Public forecast

Using degrees Fahrenheit for public forecast. Weather courtesy of forecast.io.

Closest aviation weather report (METAR) to Doss Field

Closest report is Mount Pleasant Municipal Airport, 22.6 nm (41.8 km) SSE. Retrieved 2020/01/26 07:35 UTC (8 minutes ago):

KMOP 260735Z AUTO 25005KT 7SM OVC006 02/02 A2976 RMK AO2 T00160016

Closest aviation forecast (TAF) to Doss Field

Closest forecast is MBS International Airport, 47.5 nm (88.0 km) ESE. Retrieved 2020/01/26 06:27 UTC (1 hour ago):

TAF KMBS 260524Z 2606/2706 24009KT 6SM BR OVC005 FM261300 24009KT 6SM BR OVC009 FM262000 27011KT 6SM BR OVC009 PROB30 2621/2702 5SM -SHSN BR